Felker Army Air Field
KFAF : now visible

Airfield :











YOU CAN JOIN US ON...

 
LOGIN :

Register | Disclaimer

   EN    FR    IT 

 









Legend :    VFR   Marginal VFR   IFR   Intensive IFR   Very Intensive IFR
Visi :
Ceiling :
>= 8 km
>= 3000ft
5 to 8 km
1000 to 3000 ft
1500m to 5 km
500 to 1000 ft
800 to 1500m
200 to 500 ft
< 800m
< 200 ft
Symbols :   Thunderstorms  Fog  Heavy snow  Heavy precipitations  Wind > 20 kt






- Airport Elevation : 12 ft


KFAF - Felker Army Air Field

CURRENT METAR :
  • 071556Z AUTO 17006KT 10SM CLR 29/24 A3022 RMK AO2 SLP237 T02940238 $

EXPIRED METARs :
  • 071456Z AUTO 17005KT 10SM CLR 28/24 A3023 RMK AO2 SLP240 T02830243 54000 $
  • 071356Z AUTO 17005KT 10SM CLR 28/24 A3023 RMK AO2 SLP240 T02800240 $

Expired Forecast.
KZDC FIR / North America



MET'MAP, your aeronautical weather chart ! - Copyright ORBIFLY December 2007 - Disclaimer

ORBIFLY MET'MAP TEAM :

Programming & Development : Alexandra Zaïnal
Original concept : Baudouin d'Aumeries
Technical & hardware support : Manuel Goepfert
Assistance : Marc-Olivier Méhu




SOURCES & CREDITS :

   NOAA       Earth
Advisory